| time (UTC) | temp F | wind direction | speed MPH | gust MPH | rain 1hr in | rain 24hr in | rain mn in | humidity % | barometer mb |
| 20260509225459 | 54 | 340 | 7.0 | 24.0 | 0.00 | 0.00 | 0.00 | 39 | 1001.6 |
| 20260509224728 | 54 | 283 | 11.0 | 26.0 | 0.00 | 0.00 | 0.00 | 39 | 1001.3 |
| 20260509223959 | 54 | 331 | 10.0 | 24.0 | 0.00 | 0.00 | 0.00 | 38 | 1001.3 |
| 20260509223458 | 55 | 358 | 9.0 | 19.0 | 0.00 | 0.00 | 0.00 | 37 | 1001.4 |
| 20260509223226 | 55 | 289 | 7.0 | 24.0 | 0.00 | 0.00 | 0.00 | 37 | 1001.0 |
| 20260509222505 | 56 | 306 | 9.0 | 24.0 | 0.00 | 0.00 | 0.00 | 36 | 1001.0 |
| 20260509221955 | 56 | 305 | 7.0 | 22.0 | 0.00 | 0.00 | 0.00 | 37 | 1000.9 |
| 20260509221454 | 55 | 314 | 11.0 | 22.0 | 0.00 | 0.00 | 0.00 | 37 | 1000.8 |
| 20260509220952 | 55 | 312 | 9.0 | 22.0 | 0.00 | 0.00 | 0.00 | 39 | 1000.8 |
| 20260509220721 | 55 | 257 | 12.0 | 22.0 | 0.00 | 0.00 | 0.00 | 39 | 1000.5 |
| 20260509215951 | 55 | 298 | 9.0 | 22.0 | 0.00 | 0.00 | 0.00 | 40 | 1000.4 |
| 20260509215449 | 55 | 4 | 5.0 | 19.0 | 0.00 | 0.00 | 0.00 | 41 | 1000.3 |
| 20260509214446 | 55 | 299 | 8.0 | 17.0 | 0.00 | 0.00 | 0.00 | 40 | 1000.2 |
| 20260509213946 | 55 | 350 | 4.0 | 20.0 | 0.00 | 0.00 | 0.00 | 40 | 1000.1 |
| 20260509212943 | 55 | 327 | 12.0 | 23.0 | 0.00 | 0.00 | 0.00 | 40 | 999.9 |
| 20260509212710 | 56 | 317 | 8.0 | 22.0 | 0.00 | 0.00 | 0.00 | 41 | 999.8 |
| 20260509211942 | 56 | 305 | 9.0 | 26.0 | 0.00 | 0.00 | 0.00 | 41 | 999.6 |
| 20260509211442 | 56 | 312 | 10.0 | 26.0 | 0.00 | 0.00 | 0.00 | 41 | 999.6 |
| 20260509210942 | 58 | 314 | 9.0 | 22.0 | 0.00 | 0.00 | 0.00 | 36 | 999.4 |
| 20260509210441 | 58 | 286 | 7.0 | 19.0 | 0.00 | 0.00 | 0.00 | 35 | 999.3 |
| 20260509205942 | 58 | 324 | 9.0 | 19.0 | 0.00 | 0.00 | 0.00 | 36 | 999.0 |
| 20260509205436 | 57 | 51 | 8.0 | 17.0 | 0.00 | 0.00 | 0.00 | 39 | 999.1 |
| 20260509204934 | 56 | 348 | 8.0 | 21.0 | 0.00 | 0.00 | 0.00 | 40 | 998.9 |
| 20260509204434 | 56 | 327 | 9.0 | 27.0 | 0.00 | 0.00 | 0.00 | 41 | 998.7 |
| 20260509203935 | 55 | 1 | 5.0 | 27.0 | 0.00 | 0.00 | 0.00 | 44 | 998.5 |
| 20260509203436 | 54 | 9 | 10.0 | 21.0 | 0.00 | 0.00 | 0.00 | 43 | 998.5 |
| 20260509203210 | 55 | 24 | 7.0 | 21.0 | 0.00 | 0.00 | 0.00 | 42 | 998.6 |
| 20260509202437 | 55 | 331 | 9.0 | 19.0 | 0.00 | 0.00 | 0.00 | 41 | 998.4 |
| 20260509202204 | 55 | 345 | 8.0 | 18.0 | 0.00 | 0.00 | 0.00 | 41 | 998.4 |
| 20260509201433 | 55 | 1 | 10.0 | 18.0 | 0.00 | 0.00 | 0.00 | 41 | 998.1 |
| 20260509200933 | 56 | 8 | 8.0 | 20.0 | 0.00 | 0.00 | 0.00 | 40 | 997.9 |
| 20260509200433 | 59 | 305 | 8.0 | 21.0 | 0.00 | 0.00 | 0.00 | 37 | 997.8 |
| 20260509195932 | 59 | 330 | 7.0 | 21.0 | 0.00 | 0.00 | 0.00 | 37 | 997.8 |
| 20260509195701 | 60 | 307 | 6.0 | 21.0 | 0.00 | 0.00 | 0.00 | 41 | 997.7 |
| 20260509194934 | 59 | 343 | 8.0 | 21.0 | 0.00 | 0.00 | 0.00 | 45 | 997.5 |
| 20260509194428 | 58 | 8 | 9.0 | 20.0 | 0.00 | 0.00 | 0.00 | 45 | 997.4 |
| 20260509194152 | 59 | 307 | 11.0 | 21.0 | 0.00 | 0.00 | 0.00 | 44 | 997.4 |
| 20260509193422 | 59 | 307 | 10.0 | 21.0 | 0.00 | 0.00 | 0.00 | 43 | 997.2 |
| 20260509192918 | 60 | 254 | 6.0 | 21.0 | 0.00 | 0.00 | 0.00 | 44 | 997.1 |
| 20260509192418 | 61 | 312 | 9.0 | 21.0 | 0.00 | 0.00 | 0.00 | 43 | 997.1 |
| 20260509191921 | 62 | 274 | 11.0 | 19.0 | 0.00 | 0.00 | 0.00 | 45 | 997.0 |
| 20260509190919 | 61 | 324 | 10.0 | 18.0 | 0.00 | 0.00 | 0.00 | 47 | 996.9 |
| 20260509190647 | 60 | 353 | 8.0 | 21.0 | 0.00 | 0.00 | 0.00 | 48 | 996.9 |
| 20260509185916 | 59 | 258 | 11.0 | 21.0 | 0.00 | 0.00 | 0.00 | 46 | 997.0 |
| 20260509185419 | 59 | 278 | 9.0 | 27.0 | 0.00 | 0.00 | 0.00 | 45 | 997.0 |
| 20260509184915 | 59 | 283 | 17.0 | 27.0 | 0.00 | 0.00 | 0.00 | 45 | 996.8 |
| 20260509184649 | 59 | 283 | 14.0 | 27.0 | 0.00 | 0.00 | 0.00 | 46 | 996.8 |
| 20260509183915 | 60 | 271 | 11.0 | 27.0 | 0.00 | 0.00 | 0.00 | 48 | 996.7 |
| 20260509183412 | 60 | 302 | 9.0 | 26.0 | 0.00 | 0.00 | 0.00 | 48 | 996.5 |
| 20260509183144 | 60 | 261 | 8.0 | 19.0 | 0.00 | 0.00 | 0.00 | 49 | 996.3 |
| 20260509182641 | 60 | 293 | 11.0 | 22.0 | 0.00 | 0.00 | 0.00 | 50 | 996.3 |
| 20260509182136 | 60 | 296 | 11.0 | 22.0 | 0.00 | 0.00 | 0.00 | 51 | 996.3 |
| 20260509181410 | 59 | 316 | 8.0 | 22.0 | 0.00 | 0.00 | 0.00 | 55 | 996.2 |
| 20260509180910 | 58 | 272 | 15.0 | 22.0 | 0.00 | 0.00 | 0.00 | 55 | 996.0 |
| 20260509180410 | 57 | 269 | 9.0 | 23.0 | 0.00 | 0.00 | 0.00 | 60 | 995.7 |
| 20260509175407 | 50 | 348 | 4.0 | 11.0 | 0.00 | 0.00 | 0.00 | 75 | 995.5 |
| 20260509175141 | 49 | 357 | 2.0 | 9.0 | 0.00 | 0.00 | 0.00 | 77 | 995.4 |
| 20260509174640 | 49 | 355 | 5.0 | 12.0 | 0.00 | 0.00 | 0.00 | 77 | 995.5 |
| 20260509174135 | 48 | 348 | 6.0 | 12.0 | 0.00 | 0.00 | 0.00 | 78 | 995.4 |
| 20260509173406 | 48 | 350 | 4.0 | 12.0 | 0.00 | 0.00 | 0.00 | 75 | 995.5 |
| 20260509173135 | 48 | 351 | 5.0 | 13.0 | 0.00 | 0.00 | 0.00 | 76 | 995.5 |
| 20260509172407 | 48 | 337 | 4.0 | 13.0 | 0.00 | 0.00 | 0.00 | 75 | 995.4 |
| 20260509172135 | 48 | 337 | 6.0 | 11.0 | 0.00 | 0.00 | 0.00 | 74 | 995.4 |
| 20260509171408 | 49 | 25 | 5.0 | 11.0 | 0.00 | 0.00 | 0.00 | 74 | 995.4 |
| 20260509170906 | 49 | 319 | 5.0 | 10.0 | 0.00 | 0.00 | 0.00 | 73 | 995.4 |
| 20260509170406 | 49 | 316 | 4.0 | 11.0 | 0.00 | 0.00 | 0.00 | 72 | 995.5 |
| 20260509165907 | 50 | 355 | 6.0 | 11.0 | 0.00 | 0.00 | 0.00 | 69 | 995.5 |
| 20260509165404 | 52 | 7 | 6.0 | 11.0 | 0.00 | 0.00 | 0.00 | 66 | 995.5 |
| 20260509164904 | 55 | 338 | 4.0 | 10.0 | 0.00 | 0.00 | 0.00 | 61 | 995.4 |
| 20260509164404 | 58 | 313 | 3.0 | 16.0 | 0.00 | 0.00 | 0.00 | 57 | 995.3 |
| 20260509163904 | 60 | 358 | 6.0 | 18.0 | 0.00 | 0.00 | 0.00 | 62 | 995.3 |
| 20260509163656 | 60 | 231 | 10.0 | 18.0 | 0.00 | 0.00 | 0.00 | 62 | 995.2 |
| 20260509162950 | 60 | 257 | 9.0 | 17.0 | 0.00 | 0.00 | 0.00 | 62 | 995.2 |
| 20260509162404 | 60 | 272 | 10.0 | 18.0 | 0.00 | 0.00 | 0.00 | 62 | 995.0 |
| 20260509161906 | 60 | 255 | 8.0 | 18.0 | 0.00 | 0.00 | 0.00 | 62 | 995.2 |
| 20260509161403 | 60 | 262 | 5.0 | 18.0 | 0.00 | 0.00 | 0.00 | 62 | 995.2 |
| 20260509160925 | 60 | 282 | 7.0 | 13.0 | 0.00 | 0.00 | 0.00 | 63 | 995.2 |
| 20260509160447 | 60 | 240 | 6.0 | 14.0 | 0.00 | 0.00 | 0.00 | 64 | 995.1 |
| 20260509155903 | 60 | 275 | 7.0 | 14.0 | 0.00 | 0.00 | 0.00 | 64 | 995.1 |
| 20260509155402 | 60 | 219 | 4.0 | 12.0 | 0.00 | 0.00 | 0.00 | 65 | 995.1 |
| 20260509154903 | 59 | 231 | 4.0 | 12.0 | 0.00 | 0.00 | 0.00 | 65 | 995.1 |
| 20260509154402 | 60 | 231 | 6.0 | 12.0 | 0.00 | 0.00 | 0.00 | 65 | 995.1 |
| 20260509153859 | 60 | 210 | 6.0 | 15.0 | 0.00 | 0.00 | 0.00 | 65 | 995.1 |
| 20260509153358 | 60 | 224 | 7.0 | 15.0 | 0.00 | 0.00 | 0.00 | 64 | 995.1 |
| 20260509152358 | 60 | 207 | 4.0 | 15.0 | 0.00 | 0.00 | 0.00 | 63 | 995.0 |
| 20260509151857 | 60 | 216 | 11.0 | 15.0 | 0.00 | 0.00 | 0.00 | 64 | 995.1 |
| 20260509151356 | 60 | 233 | 6.0 | 16.0 | 0.00 | 0.00 | 0.00 | 64 | 995.1 |
| 20260509150859 | 60 | 238 | 8.0 | 16.0 | 0.00 | 0.00 | 0.00 | 65 | 995.1 |
| 20260509150355 | 60 | 237 | 4.0 | 12.0 | 0.00 | 0.00 | 0.00 | 65 | 995.0 |
| 20260509145856 | 59 | 228 | 4.0 | 14.0 | 0.00 | 0.00 | 0.00 | 64 | 995.1 |
| 20260509145403 | 59 | 247 | 8.0 | 15.0 | 0.00 | 0.00 | 0.00 | 64 | 995.1 |
| 20260509144852 | 60 | 244 | 6.0 | 18.0 | 0.00 | 0.00 | 0.00 | 63 | 995.2 |
| 20260509144656 | 60 | 213 | 9.0 | 18.0 | 0.00 | 0.00 | 0.00 | 63 | 995.1 |
| 20260509143934 | 60 | 258 | 8.0 | 15.0 | 0.00 | 0.00 | 0.00 | 64 | 995.0 |
| 20260509143353 | 60 | 213 | 7.0 | 15.0 | 0.00 | 0.00 | 0.00 | 64 | 994.9 |
| 20260509142853 | 60 | 200 | 8.0 | 15.0 | 0.00 | 0.00 | 0.00 | 64 | 994.8 |
| 20260509142349 | 59 | 241 | 9.0 | 17.0 | 0.00 | 0.00 | 0.00 | 65 | 994.9 |
| 20260509141848 | 59 | 234 | 8.0 | 17.0 | 0.00 | 0.00 | 0.00 | 66 | 995.1 |
| 20260509141346 | 58 | 236 | 9.0 | 19.0 | 0.00 | 0.00 | 0.00 | 65 | 995.3 |
| 20260509140847 | 59 | 279 | 9.0 | 21.0 | 0.00 | 0.00 | 0.00 | 65 | 995.2 |
| 20260509140346 | 59 | 236 | 12.0 | 21.0 | 0.00 | 0.00 | 0.00 | 64 | 994.8 |
| 20260509135846 | 59 | 185 | 8.0 | 15.0 | 0.00 | 0.00 | 0.00 | 65 | 994.7 |
| 20260509135400 | 59 | 255 | 7.0 | 15.0 | 0.00 | 0.00 | 0.00 | 66 | 994.9 |
| 20260509134845 | 58 | 244 | 8.0 | 15.0 | 0.00 | 0.00 | 0.00 | 67 | 995.0 |
| 20260509134407 | 57 | 158 | 6.0 | 14.0 | 0.00 | 0.00 | 0.00 | 66 | 995.0 |
| 20260509133845 | 56 | 223 | 7.0 | 13.0 | 0.00 | 0.00 | 0.00 | 66 | 995.1 |
| 20260509133343 | 56 | 183 | 6.0 | 16.0 | 0.00 | 0.00 | 0.00 | 65 | 995.1 |
| 20260509132843 | 56 | 233 | 9.0 | 16.0 | 0.00 | 0.00 | 0.00 | 64 | 995.3 |
| 20260509132354 | 56 | 197 | 7.0 | 15.0 | 0.00 | 0.00 | 0.00 | 63 | 995.3 |
| 20260509131842 | 56 | 188 | 8.0 | 19.0 | 0.00 | 0.00 | 0.00 | 62 | 995.3 |
| 20260509131341 | 56 | 217 | 11.0 | 19.0 | 0.00 | 0.00 | 0.00 | 62 | 995.4 |
| 20260509130843 | 55 | 252 | 7.0 | 18.0 | 0.00 | 0.00 | 0.00 | 61 | 995.2 |
| 20260509130342 | 55 | 219 | 6.0 | 17.0 | 0.00 | 0.00 | 0.00 | 60 | 995.4 |
| 20260509125842 | 54 | 204 | 9.0 | 17.0 | 0.00 | 0.00 | 0.00 | 59 | 995.4 |
| 20260509125341 | 54 | 227 | 8.0 | 15.0 | 0.00 | 0.00 | 0.00 | 59 | 995.5 |
| 20260509124841 | 54 | 224 | 7.0 | 15.0 | 0.00 | 0.00 | 0.00 | 58 | 995.6 |
| 20260509124604 | 54 | 220 | 7.0 | 16.0 | 0.00 | 0.00 | 0.00 | 58 | 995.5 |
| 20260509123838 | 53 | 204 | 9.0 | 16.0 | 0.00 | 0.00 | 0.00 | 58 | 995.5 |
| 20260509123335 | 53 | 216 | 8.0 | 17.0 | 0.00 | 0.00 | 0.00 | 57 | 995.6 |
| 20260509122833 | 53 | 241 | 5.0 | 17.0 | 0.00 | 0.00 | 0.00 | 57 | 995.8 |
| 20260509122600 | 53 | 207 | 10.0 | 17.0 | 0.00 | 0.00 | 0.00 | 56 | 995.9 |
| 20260509121833 | 53 | 231 | 7.0 | 15.0 | 0.00 | 0.00 | 0.00 | 56 | 995.9 |
| 20260509121332 | 53 | 214 | 6.0 | 14.0 | 0.00 | 0.00 | 0.00 | 56 | 996.1 |
| 20260509121057 | 53 | 175 | 9.0 | 15.0 | 0.00 | 0.00 | 0.00 | 56 | 996.2 |
| 20260509120331 | 52 | 228 | 9.0 | 15.0 | 0.00 | 0.00 | 0.00 | 55 | 996.2 |
| 20260509120056 | 52 | 214 | 7.0 | 15.0 | 0.00 | 0.00 | 0.00 | 55 | 996.0 |
| 20260509115327 | 52 | 219 | 7.0 | 15.0 | 0.00 | 0.00 | 0.00 | 54 | 996.1 |
| 20260509114824 | 52 | 213 | 8.0 | 14.0 | 0.00 | 0.00 | 0.00 | 54 | 996.1 |
| 20260509114549 | 52 | 154 | 6.0 | 18.0 | 0.00 | 0.00 | 0.00 | 53 | 996.5 |
| 20260509113824 | 52 | 204 | 7.0 | 18.0 | 0.00 | 0.00 | 0.00 | 53 | 996.7 |
| 20260509113324 | 51 | 193 | 7.0 | 16.0 | 0.00 | 0.00 | 0.00 | 53 | 996.7 |
| 20260509112825 | 51 | 190 | 9.0 | 16.0 | 0.00 | 0.00 | 0.00 | 53 | 996.6 |
| 20260509112551 | 51 | 220 | 7.0 | 16.0 | 0.00 | 0.00 | 0.00 | 53 | 996.7 |
| 20260509111824 | 51 | 202 | 9.0 | 15.0 | 0.00 | 0.00 | 0.00 | 52 | 996.7 |
| 20260509111326 | 51 | 213 | 8.0 | 14.0 | 0.00 | 0.00 | 0.00 | 52 | 996.9 |
| 20260509110821 | 51 | 179 | 7.0 | 16.0 | 0.00 | 0.00 | 0.00 | 52 | 996.8 |
| 20260509110321 | 51 | 186 | 6.0 | 16.0 | 0.00 | 0.00 | 0.00 | 53 | 996.9 |
| 20260509105821 | 50 | 197 | 8.0 | 15.0 | 0.00 | 0.00 | 0.00 | 53 | 997.0 |
| 20260509105321 | 50 | 204 | 6.0 | 15.0 | 0.00 | 0.00 | 0.00 | 53 | 997.1 |
| 20260509104821 | 50 | 202 | 6.0 | 14.0 | 0.00 | 0.00 | 0.00 | 54 | 997.2 |
| 20260509104546 | 49 | 203 | 8.0 | 14.0 | 0.00 | 0.00 | 0.00 | 54 | 997.2 |
| 20260509103820 | 49 | 220 | 5.0 | 13.0 | 0.00 | 0.00 | 0.00 | 54 | 997.2 |
| 20260509103321 | 49 | 220 | 5.0 | 13.0 | 0.00 | 0.00 | 0.00 | 53 | 997.2 |
| 20260509102820 | 49 | 209 | 8.0 | 13.0 | 0.00 | 0.00 | 0.00 | 53 | 997.4 |
| 20260509102319 | 49 | 210 | 7.0 | 13.0 | 0.00 | 0.00 | 0.00 | 53 | 997.5 |
| 20260509101819 | 49 | 200 | 7.0 | 13.0 | 0.00 | 0.00 | 0.00 | 53 | 997.6 |
| 20260509101545 | 49 | 216 | 7.0 | 14.0 | 0.00 | 0.00 | 0.00 | 54 | 997.6 |
| 20260509100817 | 49 | 212 | 8.0 | 14.0 | 0.00 | 0.00 | 0.00 | 53 | 997.6 |
| 20260509100539 | 49 | 221 | 6.0 | 16.0 | 0.00 | 0.00 | 0.00 | 53 | 997.7 |
| 20260509095815 | 49 | 213 | 8.0 | 16.0 | 0.00 | 0.00 | 0.00 | 53 | 997.7 |
| 20260509095315 | 49 | 216 | 8.0 | 16.0 | 0.00 | 0.00 | 0.00 | 54 | 997.8 |
| 20260509094815 | 49 | 203 | 8.0 | 14.0 | 0.00 | 0.00 | 0.00 | 54 | 997.8 |
| 20260509094316 | 49 | 217 | 7.0 | 14.0 | 0.00 | 0.00 | 0.00 | 54 | 997.8 |
| 20260509093811 | 49 | 236 | 8.0 | 14.0 | 0.00 | 0.00 | 0.00 | 54 | 998.1 |
| 20260509093311 | 49 | 230 | 7.0 | 13.0 | 0.00 | 0.00 | 0.00 | 53 | 998.1 |
| 20260509092811 | 49 | 219 | 9.0 | 15.0 | 0.00 | 0.00 | 0.00 | 53 | 998.2 |
| 20260509092313 | 49 | 230 | 7.0 | 15.0 | 0.00 | 0.00 | 0.00 | 53 | 998.3 |
| 20260509091810 | 49 | 227 | 6.0 | 12.0 | 0.00 | 0.00 | 0.00 | 53 | 998.2 |
| 20260509090810 | 50 | 203 | 7.0 | 13.0 | 0.00 | 0.00 | 0.00 | 52 | 998.3 |
| 20260509090535 | 50 | 159 | 6.0 | 14.0 | 0.00 | 0.00 | 0.00 | 52 | 998.3 |
| 20260509090043 | 50 | 212 | 7.0 | 14.0 | 0.00 | 0.00 | 0.00 | 52 | 998.4 |
| 20260509085310 | 50 | 210 | 7.0 | 13.0 | 0.00 | 0.00 | 0.00 | 53 | 998.4 |
| 20260509084810 | 50 | 200 | 7.0 | 10.0 | 0.00 | 0.00 | 0.00 | 53 | 998.5 |
| 20260509084310 | 50 | 212 | 5.0 | 10.0 | 0.00 | 0.00 | 0.00 | 53 | 998.7 |
| 20260509083809 | 50 | 236 | 6.0 | 11.0 | 0.00 | 0.00 | 0.00 | 53 | 998.8 |
| 20260509083310 | 50 | 204 | 5.0 | 11.0 | 0.00 | 0.00 | 0.00 | 53 | 998.8 |
| 20260509082812 | 49 | 228 | 5.0 | 11.0 | 0.00 | 0.00 | 0.00 | 54 | 999.0 |
| 20260509082309 | 50 | 224 | 5.0 | 12.0 | 0.00 | 0.00 | 0.00 | 54 | 999.1 |
| 20260509082050 | 50 | 200 | 5.0 | 14.0 | 0.00 | 0.00 | 0.00 | 54 | 999.1 |
| 20260509080808 | 50 | 213 | 4.0 | 9.0 | 0.00 | 0.00 | 0.00 | 54 | 999.2 |
| 20260509080309 | 50 | 238 | 3.0 | 11.0 | 0.00 | 0.00 | 0.00 | 55 | 999.3 |
| 20260509075809 | 49 | 199 | 6.0 | 11.0 | 0.00 | 0.00 | 0.00 | 55 | 999.4 |
| 20260509075308 | 49 | 175 | 4.0 | 12.0 | 0.00 | 0.00 | 0.00 | 56 | 999.4 |
| 20260509074822 | 49 | 207 | 6.0 | 12.0 | 0.00 | 0.00 | 0.00 | 57 | 999.6 |
| 20260509074307 | 49 | 212 | 6.0 | 10.0 | 0.00 | 0.00 | 0.00 | 58 | 999.6 |
| 20260509074038 | 48 | 206 | 4.0 | 9.0 | 0.00 | 0.00 | 0.00 | 59 | 999.7 |
| 20260509073308 | 48 | 213 | 5.0 | 9.0 | 0.00 | 0.00 | 0.00 | 59 | 999.7 |
| 20260509072807 | 48 | 207 | 4.0 | 10.0 | 0.00 | 0.00 | 0.00 | 60 | 999.8 |
| 20260509072309 | 48 | 204 | 6.0 | 10.0 | 0.00 | 0.00 | 0.00 | 61 | 1000.1 |
| 20260509071818 | 48 | 214 | 3.0 | 10.0 | 0.00 | 0.00 | 0.00 | 61 | 1000.2 |
| 20260509071308 | 47 | 240 | 4.0 | 10.0 | 0.00 | 0.00 | 0.00 | 61 | 1000.2 |
| 20260509070807 | 47 | 258 | 2.0 | 6.0 | 0.00 | 0.00 | 0.00 | 61 | 1000.3 |
| 20260509070307 | 47 | 200 | 5.0 | 9.0 | 0.00 | 0.00 | 0.00 | 63 | 1000.4 |
| 20260509065807 | 47 | 230 | 4.0 | 9.0 | 0.00 | 0.00 | 0.00 | 64 | 1000.3 |
| 20260509065306 | 46 | 189 | 3.0 | 9.0 | 0.00 | 0.00 | 0.00 | 67 | 1000.4 |
| 20260509064815 | 46 | 196 | 3.0 | 6.0 | 0.00 | 0.00 | 0.00 | 68 | 1000.4 |
| 20260509064306 | 46 | 158 | 2.0 | 4.0 | 0.00 | 0.00 | 0.00 | 69 | 1000.4 |
| 20260509063807 | 46 | 138 | 1.0 | 4.0 | 0.00 | 0.00 | 0.00 | 69 | 1000.6 |
| 20260509063307 | 46 | 161 | 1.0 | 5.0 | 0.00 | 0.00 | 0.00 | 70 | 1000.8 |
| 20260509062807 | 46 | 151 | 2.0 | 5.0 | 0.00 | 0.00 | 0.00 | 70 | 1000.9 |
| 20260509062306 | 46 | 140 | 2.0 | 4.0 | 0.00 | 0.00 | 0.00 | 69 | 1001.0 |
| 20260509061805 | 46 | 126 | 2.0 | 4.0 | 0.00 | 0.00 | 0.00 | 70 | 1001.3 |
| 20260509061307 | 46 | 145 | 2.0 | 4.0 | 0.00 | 0.00 | 0.00 | 70 | 1001.4 |
| 20260509061037 | 46 | 178 | 2.0 | 4.0 | 0.00 | 0.00 | 0.00 | 70 | 1001.5 |
| 20260509060305 | 46 | 185 | 2.0 | 4.0 | 0.00 | 0.00 | 0.00 | 70 | 1001.4 |
| 20260509055805 | 45 | 155 | 2.0 | 4.0 | 0.00 | 0.00 | 0.00 | 70 | 1001.5 |
| 20260509055307 | 45 | 162 | 2.0 | 3.0 | 0.00 | 0.00 | 0.00 | 70 | 1001.6 |
| 20260509054805 | 46 | 154 | 1.0 | 3.0 | 0.00 | 0.00 | 0.00 | 71 | 1001.7 |
| 20260509054306 | 46 | 162 | 2.0 | 3.0 | 0.00 | 0.00 | 0.00 | 70 | 1001.8 |
| 20260509054032 | 46 | 169 | 1.0 | 3.0 | 0.00 | 0.00 | 0.00 | 70 | 1001.8 |
| 20260509053304 | 46 | 166 | 1.0 | 3.0 | 0.00 | 0.00 | 0.00 | 69 | 1001.9 |
| 20260509052804 | 46 | 137 | 0.0 | 2.0 | 0.00 | 0.00 | 0.00 | 69 | 1001.9 |
| 20260509052307 | 47 | 135 | 1.0 | 2.0 | 0.00 | 0.00 | 0.00 | 68 | 1002.0 |
| 20260509051802 | 47 | 168 | 1.0 | 2.0 | 0.00 | 0.00 | 0.00 | 65 | 1002.1 |
| 20260509051302 | 47 | 193 | 1.0 | 2.0 | 0.00 | 0.00 | 0.00 | 64 | 1002.1 |
| 20260509050802 | 47 | 202 | 0.0 | 3.0 | 0.00 | 0.00 | 0.00 | 64 | 1002.1 |
| 20260509050302 | 47 | 207 | 0.0 | 5.0 | 0.00 | 0.00 | 0.00 | 63 | 1002.1 |
| 20260509045802 | 47 | 202 | 2.0 | 5.0 | 0.00 | 0.00 | 0.00 | 63 | 1002.2 |
| 20260509045306 | 47 | 195 | 1.0 | 6.0 | 0.00 | 0.00 | 0.00 | 63 | 1002.2 |
| 20260509044802 | 47 | 154 | 2.0 | 6.0 | 0.00 | 0.00 | 0.00 | 63 | 1002.1 |
| 20260509044530 | 47 | 185 | 2.0 | 6.0 | 0.00 | 0.00 | 0.00 | 62 | 1002.2 |
| 20260509043805 | 47 | 188 | 2.0 | 7.0 | 0.00 | 0.00 | 0.00 | 63 | 1002.3 |
| 20260509043535 | 47 | 162 | 4.0 | 7.0 | 0.00 | 0.00 | 0.00 | 62 | 1002.3 |
| 20260509042804 | 47 | 179 | 4.0 | 11.0 | 0.00 | 0.00 | 0.00 | 62 | 1002.3 |
| 20260509042301 | 47 | 185 | 6.0 | 11.0 | 0.00 | 0.00 | 0.00 | 61 | 1002.4 |
| 20260509041803 | 47 | 144 | 4.0 | 10.0 | 0.00 | 0.00 | 0.00 | 61 | 1002.5 |
| 20260509041542 | 47 | 166 | 5.0 | 10.0 | 0.00 | 0.00 | 0.00 | 61 | 1002.6 |
| 20260509040804 | 47 | 176 | 4.0 | 10.0 | 0.00 | 0.00 | 0.00 | 61 | 1002.6 |
| 20260509040303 | 47 | 202 | 4.0 | 11.0 | 0.00 | 0.00 | 0.00 | 61 | 1002.7 |
| 20260509035802 | 47 | 196 | 5.0 | 11.0 | 0.00 | 0.00 | 0.00 | 62 | 1002.7 |
| 20260509035533 | 47 | 149 | 5.0 | 10.0 | 0.00 | 0.00 | 0.00 | 62 | 1002.8 |
| 20260509035039 | 47 | 196 | 4.0 | 7.0 | 0.00 | 0.00 | 0.00 | 62 | 1002.9 |
| 20260509034522 | 47 | 189 | 3.0 | 7.0 | 0.00 | 0.00 | 0.00 | 62 | 1003.0 |
| 20260509034028 | 47 | 175 | 4.0 | 7.0 | 0.00 | 0.00 | 0.00 | 62 | 1003.0 |
| 20260509033252 | 47 | 182 | 4.0 | 6.0 | 0.00 | 0.00 | 0.00 | 63 | 1003.1 |
| 20260509032753 | 47 | 161 | 4.0 | 9.0 | 0.00 | 0.00 | 0.00 | 62 | 1003.2 |
| 20260509032247 | 47 | 213 | 3.0 | 9.0 | 0.00 | 0.00 | 0.00 | 62 | 1003.2 |
| 20260509032021 | 47 | 192 | 3.0 | 9.0 | 0.00 | 0.00 | 0.00 | 63 | 1003.2 |
| 20260509031247 | 47 | 151 | 3.0 | 7.0 | 0.00 | 0.00 | 0.00 | 64 | 1003.3 |
| 20260509031022 | 47 | 165 | 4.0 | 7.0 | 0.00 | 0.00 | 0.00 | 65 | 1003.4 |
| 20260509030246 | 47 | 158 | 4.0 | 7.0 | 0.00 | 0.00 | 0.00 | 65 | 1003.5 |
| 20260509025746 | 47 | 172 | 4.0 | 7.0 | 0.00 | 0.00 | 0.00 | 65 | 1003.7 |
| 20260509025246 | 47 | 162 | 5.0 | 7.0 | 0.00 | 0.00 | 0.00 | 65 | 1003.8 |
| 20260509024745 | 46 | 202 | 3.0 | 9.0 | 0.00 | 0.00 | 0.00 | 65 | 1003.7 |
| 20260509024244 | 46 | 199 | 4.0 | 9.0 | 0.00 | 0.00 | 0.00 | 66 | 1003.7 |
| 20260509023744 | 46 | 171 | 2.0 | 6.0 | 0.00 | 0.00 | 0.00 | 67 | 1003.8 |
| 20260509023241 | 46 | 192 | 3.0 | 7.0 | 0.00 | 0.00 | 0.00 | 68 | 1003.8 |
| 20260509022740 | 45 | 192 | 5.0 | 7.0 | 0.00 | 0.00 | 0.00 | 68 | 1003.9 |
| 20260509021739 | 45 | 166 | 4.0 | 6.0 | 0.00 | 0.00 | 0.00 | 70 | 1003.9 |
| 20260509021239 | 45 | 200 | 2.0 | 5.0 | 0.00 | 0.00 | 0.00 | 69 | 1003.9 |
| 20260509021008 | 45 | 182 | 2.0 | 5.0 | 0.00 | 0.00 | 0.00 | 69 | 1003.9 |
| 20260509020241 | 45 | 186 | 2.0 | 4.0 | 0.00 | 0.00 | 0.00 | 69 | 1003.9 |
| 20260509015725 | 45 | 179 | 2.0 | 4.0 | 0.00 | 0.00 | 0.00 | 68 | 1003.9 |
| 20260509015224 | 45 | 162 | 2.0 | 4.0 | 0.00 | 0.00 | 0.00 | 67 | 1003.9 |
| 20260509014719 | 45 | 151 | 2.0 | 4.0 | 0.00 | 0.00 | 0.00 | 67 | 1003.8 |
| 20260509014219 | 45 | 166 | 2.0 | 5.0 | 0.00 | 0.00 | 0.00 | 67 | 1003.9 |
| 20260509013718 | 45 | 155 | 3.0 | 5.0 | 0.00 | 0.00 | 0.00 | 67 | 1003.9 |
| 20260509013215 | 45 | 168 | 3.0 | 4.0 | 0.00 | 0.00 | 0.00 | 67 | 1003.9 |
| 20260509012714 | 45 | 161 | 2.0 | 4.0 | 0.00 | 0.00 | 0.00 | 66 | 1003.9 |
| 20260509012440 | 45 | 155 | 2.0 | 4.0 | 0.00 | 0.00 | 0.00 | 66 | 1003.8 |
| 20260509011711 | 45 | 188 | 1.0 | 4.0 | 0.00 | 0.00 | 0.00 | 66 | 1003.8 |
| 20260509011212 | 46 | 157 | 2.0 | 4.0 | 0.00 | 0.00 | 0.00 | 66 | 1003.8 |
| 20260509010710 | 46 | 158 | 2.0 | 3.0 | 0.00 | 0.00 | 0.00 | 65 | 1003.7 |
| 20260509010214 | 46 | 151 | 2.0 | 5.0 | 0.00 | 0.00 | 0.00 | 65 | 1003.7 |
| 20260509005757 | 46 | 144 | 2.0 | 4.0 | 0.00 | 0.00 | 0.00 | 64 | 1003.7 |
| 20260509005031 | 47 | 137 | 1.0 | 4.0 | 0.00 | 0.00 | 0.00 | 64 | 1003.5 |
| 20260509004532 | 47 | 144 | 2.0 | 5.0 | 0.00 | 0.00 | 0.00 | 64 | 1003.7 |
| 20260509004031 | 47 | 134 | 1.0 | 5.0 | 0.00 | 0.00 | 0.00 | 65 | 1003.7 |
| 20260509003530 | 47 | 141 | 2.0 | 4.0 | 0.00 | 0.00 | 0.00 | 66 | 1003.5 |
| 20260509003027 | 47 | 141 | 1.0 | 5.0 | 0.00 | 0.00 | 0.00 | 68 | 1003.5 |
| 20260509002526 | 47 | 121 | 1.0 | 5.0 | 0.00 | 0.00 | 0.00 | 71 | 1003.5 |
| 20260509002027 | 46 | 127 | 2.0 | 4.0 | 0.00 | 0.00 | 0.00 | 75 | 1003.5 |
| 20260509001527 | 45 | 131 | 2.0 | 5.0 | 0.00 | 0.00 | 0.00 | 81 | 1003.5 |
| 20260509001026 | 44 | 137 | 3.0 | 5.0 | 0.00 | 0.00 | 0.00 | 86 | 1003.5 |
| 20260509000526 | 44 | 154 | 2.0 | 4.0 | 0.00 | 0.00 | 0.00 | 87 | 1003.7 |
| 20260509000020 | 44 | 96 | 0.0 | 3.0 | 0.00 | 0.00 | 0.00 | 87 | 1003.7 |
| 20260508235736 | 44 | 85 | 2.0 | 3.0 | 0.00 | 0.00 | 0.00 | 87 | 1003.7 |
| 20260508235008 | 43 | 85 | 1.0 | 3.0 | 0.00 | 0.00 | 0.00 | 87 | 1003.7 |
| 20260508234231 | 43 | 99 | 2.0 | 3.0 | 0.00 | 0.00 | 0.00 | 86 | 1003.9 |
| 20260508233503 | 43 | 75 | 1.0 | 3.0 | 0.00 | 0.00 | 0.00 | 86 | 1004.0 |
| 20260508233004 | 43 | 86 | 1.0 | 4.0 | 0.00 | 0.00 | 0.00 | 85 | 1003.9 |
| 20260508232503 | 43 | 87 | 2.0 | 4.0 | 0.00 | 0.00 | 0.00 | 85 | 1004.0 |
| 20260508232004 | 43 | 72 | 2.0 | 4.0 | 0.00 | 0.00 | 0.00 | 85 | 1004.0 |
| 20260508231504 | 44 | 80 | 2.0 | 6.0 | 0.00 | 0.00 | 0.00 | 84 | 1004.0 |
| 20260508231002 | 44 | 102 | 2.0 | 6.0 | 0.00 | 0.00 | 0.00 | 84 | 1004.0 |
| 20260508230504 | 44 | 110 | 3.0 | 7.0 | 0.00 | 0.00 | 0.00 | 83 | 1004.0 |
| 20260508230004 | 44 | 95 | 4.0 | 7.0 | 0.00 | 0.00 | 0.00 | 82 | 1004.0 |